createdAt,value
2018-07-28T00:02:06.999Z,44.93
2018-07-28T00:05:31.759Z,43.98
2018-07-28T00:08:56.527Z,43.96
2018-07-28T00:12:21.287Z,44.13
2018-07-28T00:15:46.208Z,43.20
2018-07-28T00:19:10.886Z,44.22
2018-07-28T00:22:35.726Z,43.00
2018-07-28T00:26:18.231Z,44.16
2018-07-28T00:29:42.982Z,43.37
2018-07-28T00:33:07.383Z,44.06
2018-07-28T00:36:32.050Z,45.35
2018-07-28T00:39:56.858Z,48.16
2018-07-28T00:43:21.502Z,47.99
2018-07-28T00:46:46.258Z,45.68
2018-07-28T00:50:11.058Z,46.24
2018-07-28T00:53:35.768Z,46.62
2018-07-28T00:57:01.114Z,44.81
2018-07-28T01:00:25.821Z,45.25
2018-07-28T01:03:50.200Z,47.33
2018-07-28T01:07:14.976Z,46.33
2018-07-28T01:10:39.418Z,46.28
2018-07-28T01:14:04.302Z,45.94
2018-07-28T01:17:28.750Z,44.79
2018-07-28T01:20:53.497Z,49.07
2018-07-28T01:24:18.228Z,48.50
2018-07-28T01:27:43.011Z,46.42
2018-07-28T01:31:07.854Z,44.80
2018-07-28T01:34:32.617Z,47.76
2018-07-28T01:37:57.348Z,48.56
2018-07-28T01:41:22.076Z,50.18
2018-07-28T01:44:46.820Z,48.09
2018-07-28T01:48:11.647Z,47.50
2018-07-28T01:51:36.734Z,49.12
2018-07-28T01:55:01.457Z,51.09
2018-07-28T01:58:26.154Z,53.08
2018-07-28T02:01:50.925Z,52.23
2018-07-28T02:05:15.628Z,51.88
2018-07-28T02:08:40.041Z,52.36
2018-07-28T02:12:04.843Z,51.57
2018-07-28T02:15:29.652Z,52.53
2018-07-28T02:18:54.309Z,51.91
2018-07-28T02:22:18.969Z,52.97
2018-07-28T02:25:43.691Z,52.34
2018-07-28T02:29:09.872Z,51.58
2018-07-28T02:32:35.143Z,53.22
2018-07-28T02:36:00.030Z,53.16
2018-07-28T02:39:24.743Z,52.34
2018-07-28T02:42:49.456Z,53.06
2018-07-28T02:46:14.196Z,52.95
2018-07-28T02:49:38.876Z,53.49
2018-07-28T02:53:03.887Z,53.14
2018-07-28T02:56:28.239Z,54.45
2018-07-28T02:59:53.147Z,54.11
2018-07-28T03:03:17.910Z,54.71
2018-07-28T03:06:42.609Z,54.35
2018-07-28T03:10:08.230Z,51.08
2018-07-28T03:13:32.976Z,51.07
2018-07-28T03:16:57.627Z,53.44
2018-07-28T03:20:22.493Z,54.16
2018-07-28T03:25:11.657Z,55.45
2018-07-28T03:28:36.389Z,54.20
2018-07-28T03:32:01.143Z,54.99
2018-07-28T03:35:26.024Z,54.99
2018-07-28T03:38:50.833Z,55.59
2018-07-28T03:42:15.167Z,55.46
2018-07-28T03:45:39.972Z,56.41
2018-07-28T03:49:04.777Z,55.50
2018-07-28T03:52:29.088Z,57.21
2018-07-28T03:55:53.756Z,55.53
2018-07-28T03:59:18.503Z,53.84
2018-07-28T04:02:43.261Z,54.40
2018-07-28T04:06:08.043Z,53.87
2018-07-28T04:09:32.863Z,54.43
2018-07-28T04:12:57.557Z,55.88
2018-07-28T04:16:22.288Z,55.21
2018-07-28T04:19:46.966Z,55.86
2018-07-28T04:23:11.740Z,55.85
2018-07-28T04:26:36.457Z,55.92
2018-07-28T04:30:01.153Z,56.26
2018-07-28T04:33:25.983Z,56.66
2018-07-28T04:36:50.828Z,57.85
2018-07-28T04:40:15.486Z,58.49
2018-07-28T04:43:40.232Z,57.94
2018-07-28T04:47:05.093Z,57.40
2018-07-28T04:50:29.956Z,57.00
2018-07-28T04:53:54.685Z,56.06
2018-07-28T04:57:19.402Z,54.38
2018-07-28T05:00:44.072Z,54.44
2018-07-28T05:04:08.948Z,52.34
2018-07-28T05:07:33.820Z,50.42
2018-07-28T05:10:58.389Z,53.92
2018-07-28T05:14:23.217Z,49.75
2018-07-28T05:17:48.065Z,50.79
2018-07-28T05:21:13.159Z,52.57
2018-07-28T05:24:38.455Z,52.91
2018-07-28T05:28:03.160Z,49.63
2018-07-28T05:31:27.913Z,48.93
2018-07-28T05:34:52.594Z,49.87
2018-07-28T05:38:17.259Z,49.03
2018-07-28T05:41:42.030Z,49.04
2018-07-28T05:45:07.488Z,48.48
2018-07-28T05:48:32.247Z,48.24
2018-07-28T05:51:57.121Z,48.54
2018-07-28T05:55:21.878Z,48.85
2018-07-28T05:58:46.659Z,50.91
2018-07-28T06:02:11.357Z,48.84
2018-07-28T06:05:37.511Z,48.60
2018-07-28T06:09:02.173Z,50.23
2018-07-28T06:12:26.920Z,50.03
2018-07-28T06:15:51.707Z,49.36
2018-07-28T06:19:16.335Z,49.82
2018-07-28T06:22:41.757Z,49.04
2018-07-28T06:26:06.606Z,50.05
2018-07-28T06:29:30.952Z,49.95
2018-07-28T06:32:55.727Z,50.38
2018-07-28T06:36:20.602Z,51.03
2018-07-28T06:39:46.051Z,51.21
2018-07-28T06:43:11.419Z,51.30
2018-07-28T06:46:36.223Z,54.30
2018-07-28T06:50:01.321Z,51.92
2018-07-28T06:53:26.032Z,51.56
2018-07-28T06:56:50.767Z,52.80
2018-07-28T07:00:15.647Z,50.01
2018-07-28T07:03:40.409Z,50.60
2018-07-28T07:07:06.107Z,53.26
2018-07-28T07:10:31.558Z,59.92
2018-07-28T07:13:56.319Z,66.07
2018-07-28T07:17:21.683Z,73.09
2018-07-28T07:20:46.385Z,68.73
2018-07-28T07:24:11.218Z,61.84
2018-07-28T07:27:35.570Z,61.37
2018-07-28T07:31:00.722Z,63.83
2018-07-28T07:34:25.491Z,69.82
2018-07-28T07:37:50.355Z,71.76
2018-07-28T07:41:15.084Z,62.72
2018-07-28T07:44:39.487Z,60.55
2018-07-28T07:48:03.925Z,62.72
2018-07-28T07:51:29.353Z,61.15
2018-07-28T07:54:54.051Z,62.82
2018-07-28T07:58:18.887Z,71.05
2018-07-28T08:01:44.236Z,63.88
2018-07-28T08:05:09.278Z,65.27
2018-07-28T08:08:37.292Z,65.98
2018-07-28T08:12:02.773Z,66.19
2018-07-28T08:15:29.729Z,65.53
2018-07-28T08:18:54.922Z,66.74
2018-07-28T08:22:21.096Z,67.22
2018-07-28T08:25:45.866Z,66.97
2018-07-28T08:29:10.660Z,67.03
2018-07-28T08:32:35.452Z,65.91
2018-07-28T08:36:00.316Z,65.66
2018-07-28T08:39:25.095Z,65.31
2018-07-28T08:42:50.024Z,66.16
2018-07-28T08:46:16.562Z,68.92
2018-07-28T08:49:41.463Z,66.54
2018-07-28T08:53:06.246Z,66.13
2018-07-28T08:56:30.904Z,63.73
2018-07-28T08:59:56.503Z,61.16
2018-07-28T09:03:21.454Z,60.31
2018-07-28T09:06:46.479Z,58.42
2018-07-28T09:10:11.171Z,56.79
2018-07-28T09:13:36.338Z,56.96
2018-07-28T09:17:01.842Z,56.10
2018-07-28T09:20:26.620Z,55.05
2018-07-28T09:23:51.389Z,56.25
2018-07-28T09:27:15.757Z,56.15
2018-07-28T09:30:40.587Z,55.92
2018-07-28T09:34:05.686Z,55.17
2018-07-28T09:37:30.179Z,56.39
2018-07-28T09:40:54.725Z,55.34
2018-07-28T09:44:19.181Z,53.65
2018-07-28T09:47:43.964Z,51.19
2018-07-28T09:51:09.023Z,52.71
2018-07-28T09:54:33.742Z,53.41
2018-07-28T09:57:58.749Z,54.30
2018-07-28T10:01:24.327Z,55.77
2018-07-28T10:04:49.171Z,56.74
2018-07-28T10:08:13.893Z,57.50
2018-07-28T10:11:38.596Z,54.25
2018-07-28T10:15:03.034Z,56.02
2018-07-28T10:18:27.784Z,54.25
2018-07-28T11:39:08.756Z,57.54
2018-07-28T11:42:50.597Z,55.54
2018-07-28T11:46:15.430Z,57.05
2018-07-28T11:49:40.194Z,59.10
2018-07-28T11:53:05.024Z,60.03
2018-07-28T11:56:29.711Z,65.87
2018-07-28T11:59:54.423Z,62.96
2018-07-28T12:03:19.178Z,67.66
2018-07-28T12:06:43.925Z,65.82
2018-07-28T12:10:09.811Z,68.03
2018-07-28T12:13:34.505Z,68.52
2018-07-28T12:16:59.225Z,65.33
2018-07-28T12:20:23.938Z,68.00
2018-07-28T12:23:48.693Z,69.82
2018-07-28T12:27:13.380Z,70.98
2018-07-28T12:30:38.063Z,69.76
2018-07-28T12:34:02.742Z,70.25
2018-07-28T12:37:27.395Z,69.84
2018-07-28T12:40:52.064Z,68.76
2018-07-28T12:44:16.797Z,67.61
2018-07-28T12:47:41.496Z,69.01
2018-07-28T12:51:06.225Z,67.68
2018-07-28T12:54:30.931Z,67.59
2018-07-28T12:57:55.581Z,67.04
2018-07-28T13:01:20.304Z,67.64
2018-07-28T13:04:44.677Z,68.86
2018-07-28T13:08:09.400Z,67.72
2018-07-28T13:11:34.051Z,69.09
2018-07-28T13:14:58.769Z,67.36
2018-07-28T13:18:23.428Z,69.24
2018-07-28T13:21:48.189Z,68.74
2018-07-28T13:25:12.551Z,69.90
2018-07-28T13:28:37.274Z,69.39
2018-07-28T13:32:01.972Z,69.25
2018-07-28T13:35:26.420Z,67.64
2018-07-28T13:38:51.141Z,70.96
2018-07-28T13:42:15.607Z,72.59
2018-07-28T13:45:40.298Z,71.38
2018-07-28T13:49:05.357Z,73.33
2018-07-28T13:52:31.015Z,73.23
2018-07-28T13:55:55.703Z,75.20
2018-07-28T13:59:20.457Z,74.34
2018-07-28T14:02:45.168Z,75.02
2018-07-28T14:06:10.052Z,74.63
2018-07-28T14:09:34.646Z,74.44
2018-07-28T14:12:59.449Z,73.32
2018-07-28T14:16:24.237Z,72.33
2018-07-28T14:19:48.995Z,72.46
2018-07-28T14:23:13.665Z,68.53
2018-07-28T14:26:38.339Z,70.32
2018-07-28T14:30:03.054Z,66.20
2018-07-28T14:33:27.742Z,67.55
2018-07-28T14:36:52.484Z,66.26
2018-07-28T14:40:17.333Z,65.89
2018-07-28T14:43:41.747Z,67.48
2018-07-28T14:47:07.571Z,66.91
2018-07-28T14:50:32.498Z,66.22
2018-07-28T14:53:57.382Z,64.82
2018-07-28T14:57:22.293Z,64.41
2018-07-28T15:00:47.092Z,65.30
2018-07-28T15:04:11.799Z,65.17
2018-07-28T15:07:36.477Z,64.93
2018-07-28T15:11:01.213Z,64.48
2018-07-28T15:14:25.881Z,63.89
2018-07-28T15:17:50.628Z,64.07
2018-07-28T15:21:15.329Z,62.34
2018-07-28T15:24:39.777Z,61.74
2018-07-28T15:28:04.546Z,63.13
2018-07-28T15:31:29.275Z,61.87
2018-07-28T15:34:53.924Z,61.41
2018-07-28T15:38:18.641Z,61.72
2018-07-28T15:41:43.348Z,60.08
2018-07-28T15:45:08.016Z,58.71
2018-07-28T15:48:32.695Z,58.17
2018-07-28T15:51:57.384Z,56.96
2018-07-28T15:55:22.232Z,56.74
2018-07-28T15:58:47.011Z,57.42
2018-07-28T16:02:11.826Z,57.36
2018-07-28T16:05:36.612Z,56.00
2018-07-28T16:09:01.270Z,56.17
2018-07-28T16:12:26.006Z,57.04
2018-07-28T16:15:50.712Z,56.21
2018-07-28T16:19:15.381Z,55.15
2018-07-28T16:22:40.191Z,55.32
2018-07-28T16:26:04.956Z,55.05
2018-07-28T16:29:29.654Z,54.29
2018-07-28T16:32:54.347Z,54.31
2018-07-28T16:36:19.008Z,54.23
2018-07-28T16:39:43.649Z,53.47
2018-07-28T16:43:08.350Z,53.96
2018-07-28T16:46:33.068Z,53.04
2018-07-28T16:49:57.795Z,54.35
2018-07-28T16:53:22.700Z,53.99
2018-07-28T16:56:47.065Z,54.81
2018-07-28T17:00:11.786Z,54.03
2018-07-28T17:03:36.548Z,54.32
2018-07-28T17:07:00.968Z,54.54
2018-07-28T17:10:25.646Z,52.72
2018-07-28T17:13:50.566Z,52.18
2018-07-28T17:17:15.242Z,49.98
2018-07-28T17:20:39.592Z,49.63
2018-07-28T17:24:04.283Z,52.10
2018-07-28T17:27:28.960Z,52.32
2018-07-28T17:30:53.785Z,52.45
2018-07-28T17:34:18.490Z,52.64
2018-07-28T17:37:43.246Z,52.85
2018-07-28T17:41:08.403Z,50.95
2018-07-28T17:44:32.826Z,53.22
2018-07-28T17:47:57.493Z,53.29
2018-07-28T17:51:22.283Z,52.32
2018-07-28T17:54:46.741Z,54.23
2018-07-28T17:58:11.521Z,53.93
2018-07-28T18:01:36.235Z,51.94
2018-07-28T18:05:01.027Z,52.46
2018-07-28T18:08:25.865Z,53.14
2018-07-28T18:11:50.563Z,53.61
2018-07-28T18:15:15.315Z,54.24
2018-07-28T18:18:39.656Z,56.83
2018-07-28T18:22:04.364Z,55.61
2018-07-28T18:25:30.021Z,56.46
2018-07-28T18:28:54.346Z,55.27
2018-07-28T18:32:19.067Z,57.32
2018-07-28T18:35:44.016Z,55.85
2018-07-28T18:39:10.857Z,57.17
2018-07-28T18:42:35.618Z,58.70
2018-07-28T18:46:00.013Z,59.44
2018-07-28T18:49:24.400Z,60.16
2018-07-28T18:52:49.161Z,59.03
2018-07-28T18:56:13.890Z,59.28
2018-07-28T18:59:38.596Z,57.15
2018-07-28T19:03:03.332Z,58.33
2018-07-28T19:06:28.029Z,56.96
2018-07-28T19:09:53.377Z,57.13
2018-07-28T19:13:23.251Z,56.31
2018-07-28T19:16:48.032Z,56.17
2018-07-28T19:20:12.754Z,57.32
2018-07-28T19:23:42.557Z,58.04
2018-07-28T19:27:06.996Z,57.45
2018-07-28T19:30:31.706Z,56.54
2018-07-28T19:33:56.462Z,57.75
2018-07-28T19:37:23.733Z,56.61
2018-07-28T19:40:48.436Z,61.12
2018-07-28T19:44:13.641Z,64.41
2018-07-28T19:47:38.291Z,57.93
2018-07-28T19:51:03.015Z,62.55
2018-07-28T19:54:27.778Z,61.06
2018-07-28T19:57:52.415Z,59.27
2018-07-28T20:01:17.064Z,61.28
2018-07-28T20:04:41.835Z,59.20
2018-07-28T20:08:06.604Z,62.49
2018-07-28T20:11:31.273Z,64.70
2018-07-28T20:14:55.951Z,58.24
2018-07-28T20:18:20.701Z,57.81
2018-07-28T20:21:45.370Z,59.52
2018-07-28T20:25:10.148Z,58.08
2018-07-28T20:28:34.869Z,58.74
2018-07-28T20:31:59.644Z,63.47
2018-07-28T20:35:24.284Z,64.59
2018-07-28T20:38:48.962Z,60.03
2018-07-28T20:42:13.296Z,67.35
2018-07-28T20:45:37.968Z,60.17
2018-07-28T20:49:02.709Z,60.85
2018-07-28T20:52:27.385Z,66.64
2018-07-28T20:55:52.124Z,61.51
2018-07-28T20:59:16.836Z,59.84
2018-07-28T21:02:42.601Z,62.82
2018-07-28T21:06:07.278Z,59.30
2018-07-28T21:09:32.089Z,65.56
2018-07-28T21:12:56.797Z,61.31
2018-07-28T21:16:21.463Z,61.40
2018-07-28T21:19:46.302Z,63.85
2018-07-28T21:23:11.052Z,63.44
2018-07-28T21:26:35.726Z,59.66
2018-07-28T21:30:00.605Z,59.52
2018-07-28T21:33:24.987Z,59.19
2018-07-28T21:36:49.666Z,62.35
2018-07-28T21:40:14.355Z,67.33
2018-07-28T21:43:39.067Z,67.26
2018-07-28T21:47:05.222Z,66.62
2018-07-28T21:50:31.149Z,67.06
2018-07-28T21:53:56.494Z,66.75
2018-07-28T21:57:22.508Z,61.91
2018-07-28T22:01:02.842Z,64.67
2018-07-28T22:04:30.294Z,67.84
2018-07-28T22:07:55.761Z,64.62
2018-07-28T22:11:21.310Z,61.56
2018-07-28T22:14:46.922Z,59.60
2018-07-28T22:18:12.848Z,65.74
2018-07-28T22:21:37.583Z,67.34
2018-07-28T22:25:01.965Z,63.39
2018-07-28T22:28:26.728Z,61.09
2018-07-28T22:31:51.433Z,59.73
2018-07-28T22:35:16.126Z,63.37
2018-07-28T22:38:40.918Z,66.38
2018-07-28T22:42:05.666Z,62.08
2018-07-28T22:45:30.334Z,64.82
2018-07-28T22:48:55.159Z,65.22
2018-07-28T22:52:20.032Z,66.31
2018-07-28T22:55:44.776Z,60.92
2018-07-28T22:59:09.479Z,59.86
2018-07-28T23:02:33.929Z,62.80
2018-07-28T23:05:58.634Z,64.26
2018-07-28T23:09:23.295Z,60.00
2018-07-28T23:12:48.820Z,60.16
2018-07-28T23:16:13.470Z,59.58
2018-07-28T23:19:38.191Z,60.78
2018-07-28T23:23:02.961Z,61.21
2018-07-28T23:26:27.708Z,59.71
2018-07-28T23:29:52.507Z,59.75
2018-07-28T23:33:17.287Z,61.48
2018-07-28T23:36:41.941Z,65.04
2018-07-28T23:40:06.524Z,60.85
2018-07-28T23:43:31.253Z,59.96
2018-07-28T23:46:55.905Z,61.14
2018-07-28T23:50:20.578Z,60.06
2018-07-28T23:53:45.212Z,60.21
2018-07-28T23:57:09.932Z,61.05
